createdAt,value
2016-12-05T00:00:12.700Z,1049.12
2016-12-05T00:01:12.685Z,1049.13
2016-12-05T00:02:12.673Z,1049.09
2016-12-05T00:03:12.656Z,1049.07
2016-12-05T00:04:12.644Z,1049.09
2016-12-05T00:05:12.627Z,1049.04
2016-12-05T00:06:12.612Z,1049.02
2016-12-05T00:07:12.597Z,1048.98
2016-12-05T00:08:12.584Z,1048.95
2016-12-05T00:09:12.570Z,1048.94
2016-12-05T00:10:12.553Z,1048.92
2016-12-05T00:11:12.541Z,1048.9
2016-12-05T00:12:12.525Z,1048.87
2016-12-05T00:13:12.509Z,1048.83
2016-12-05T00:14:12.496Z,1048.83
2016-12-05T00:15:12.481Z,1048.87
2016-12-05T00:16:12.467Z,1048.88
2016-12-05T00:17:12.450Z,1048.88
2016-12-05T00:18:12.437Z,1048.87
2016-12-05T00:19:12.422Z,1048.89
2016-12-05T00:20:12.407Z,1048.91
2016-12-05T00:21:12.392Z,1048.96
2016-12-05T00:22:12.379Z,1049
2016-12-05T00:23:12.362Z,1049.1
2016-12-05T00:24:12.349Z,1049.14
2016-12-05T00:25:12.334Z,1049.27
2016-12-05T00:26:12.321Z,1049.34
2016-12-05T00:27:12.303Z,1049.34
2016-12-05T00:28:12.289Z,1049.38
2016-12-05T00:29:12.274Z,1049.4
2016-12-05T00:30:12.263Z,1049.39
2016-12-05T00:31:12.248Z,1049.37
2016-12-05T00:32:12.231Z,1049.38
2016-12-05T00:33:12.216Z,1049.39
2016-12-05T00:34:12.203Z,1049.36
2016-12-05T00:35:12.188Z,1049.29
2016-12-05T00:36:12.173Z,1049.28
2016-12-05T00:37:12.160Z,1049.18
2016-12-05T00:38:12.144Z,1049.14
2016-12-05T00:39:12.134Z,1049.14
2016-12-05T00:40:12.112Z,1049.12
2016-12-05T00:41:12.097Z,1049.04
2016-12-05T00:42:12.083Z,1049
2016-12-05T00:43:12.070Z,1048.97
2016-12-05T00:44:12.053Z,1048.95
2016-12-05T00:45:12.038Z,1048.9
2016-12-05T00:46:12.022Z,1048.91
2016-12-05T00:47:12.010Z,1048.94
2016-12-05T00:48:11.993Z,1048.97
2016-12-05T00:49:11.978Z,1048.97
2016-12-05T00:50:11.965Z,1049.02
2016-12-05T00:51:11.948Z,1048.99
2016-12-05T00:52:11.933Z,1048.95
2016-12-05T00:53:11.918Z,1048.89
2016-12-05T00:54:11.905Z,1048.84
2016-12-05T00:55:11.891Z,1048.81
2016-12-05T00:56:11.876Z,1048.75
2016-12-05T00:57:11.858Z,1048.74
2016-12-05T00:58:11.845Z,1048.73
2016-12-05T00:59:11.829Z,1048.72
2016-12-05T01:00:11.814Z,1048.71
2016-12-05T01:01:11.799Z,1048.75
2016-12-05T01:02:11.787Z,1048.75
2016-12-05T01:03:11.769Z,1048.73
2016-12-05T01:04:11.757Z,1048.76
2016-12-05T01:05:11.742Z,1048.87
2016-12-05T01:06:11.727Z,1048.86
2016-12-05T01:07:11.712Z,1048.87
2016-12-05T01:08:11.697Z,1048.91
2016-12-05T01:09:11.681Z,1048.85
2016-12-05T01:10:11.667Z,1048.85
2016-12-05T01:11:11.656Z,1048.87
2016-12-05T01:12:11.636Z,1048.84
2016-12-05T01:13:11.623Z,1048.86
2016-12-05T01:14:11.606Z,1048.88
2016-12-05T01:15:11.594Z,1048.86
2016-12-05T01:16:11.577Z,1048.87
2016-12-05T01:17:11.565Z,1048.91
2016-12-05T01:18:11.549Z,1048.9
2016-12-05T01:19:11.535Z,1048.88
2016-12-05T01:20:11.518Z,1048.84
2016-12-05T01:21:11.504Z,1048.81
2016-12-05T01:22:11.489Z,1048.81
2016-12-05T01:23:11.473Z,1048.82
2016-12-05T01:24:11.460Z,1048.8
2016-12-05T01:25:11.444Z,1048.83
2016-12-05T01:26:11.429Z,1048.83
2016-12-05T01:27:11.416Z,1048.82
2016-12-05T01:28:11.400Z,1048.87
2016-12-05T01:29:11.386Z,1048.92
2016-12-05T01:30:11.369Z,1048.91
2016-12-05T01:31:11.358Z,1048.93
2016-12-05T01:32:11.340Z,1048.96
2016-12-05T01:33:11.325Z,1048.92
2016-12-05T01:34:11.312Z,1048.91
2016-12-05T01:35:11.296Z,1048.88
2016-12-05T01:36:11.282Z,1048.81
2016-12-05T01:37:11.265Z,1048.78
2016-12-05T01:38:11.253Z,1048.76
2016-12-05T01:39:11.237Z,1048.74
2016-12-05T01:40:11.223Z,1048.7
2016-12-05T01:41:11.206Z,1048.69
2016-12-05T01:42:11.192Z,1048.66
2016-12-05T01:43:11.177Z,1048.66
2016-12-05T01:44:11.164Z,1048.69
2016-12-05T01:45:11.147Z,1048.72
2016-12-05T01:46:11.133Z,1048.72
2016-12-05T01:47:11.117Z,1048.79
2016-12-05T01:48:11.103Z,1048.8
2016-12-05T01:49:11.089Z,1048.78
2016-12-05T01:50:11.076Z,1048.75
2016-12-05T01:51:11.060Z,1048.78
2016-12-05T01:52:11.045Z,1048.78
2016-12-05T01:53:11.035Z,1048.79
2016-12-05T01:54:11.015Z,1048.75
2016-12-05T01:55:10.999Z,1048.8
2016-12-05T01:56:10.986Z,1048.79
2016-12-05T01:57:10.969Z,1048.81
2016-12-05T01:58:10.953Z,1048.84
2016-12-05T01:59:10.941Z,1048.8
2016-12-05T02:00:10.926Z,1048.76
2016-12-05T02:01:10.911Z,1048.74
2016-12-05T02:02:10.895Z,1048.74
2016-12-05T02:03:10.879Z,1048.71
2016-12-05T02:04:10.867Z,1048.67
2016-12-05T02:05:10.851Z,1048.69
2016-12-05T02:06:10.836Z,1048.65
2016-12-05T02:07:10.821Z,1048.65
2016-12-05T02:08:10.807Z,1048.63
2016-12-05T02:09:10.791Z,1048.62
2016-12-05T02:10:10.776Z,1048.69
2016-12-05T02:11:10.766Z,1048.77
2016-12-05T02:12:10.748Z,1048.84
2016-12-05T02:13:10.731Z,1048.88
2016-12-05T02:14:10.717Z,1048.88
2016-12-05T02:15:10.704Z,1048.89
2016-12-05T02:16:10.688Z,1048.88
2016-12-05T02:17:10.673Z,1048.94
2016-12-05T02:18:10.658Z,1048.97
2016-12-05T02:19:10.643Z,1048.98
2016-12-05T02:20:10.629Z,1048.98
2016-12-05T02:21:10.613Z,1048.98
2016-12-05T02:22:10.597Z,1048.98
2016-12-05T02:23:10.582Z,1048.98
2016-12-05T02:24:10.569Z,1048.99
2016-12-05T02:25:10.554Z,1048.97
2016-12-05T02:26:10.537Z,1048.95
2016-12-05T02:27:10.522Z,1049.01
2016-12-05T02:28:10.507Z,1049.03
2016-12-05T02:29:10.491Z,1049.01
2016-12-05T02:30:10.478Z,1049.01
2016-12-05T02:31:10.462Z,1048.96
2016-12-05T02:32:10.448Z,1048.96
2016-12-05T02:33:10.434Z,1048.94
2016-12-05T02:34:10.419Z,1048.98
2016-12-05T02:35:10.403Z,1049
2016-12-05T02:36:10.386Z,1048.97
2016-12-05T02:37:10.372Z,1048.97
2016-12-05T02:38:10.355Z,1048.96
2016-12-05T02:39:10.340Z,1048.93
2016-12-05T02:40:10.327Z,1048.89
2016-12-05T02:41:10.313Z,1048.88
2016-12-05T02:42:10.297Z,1048.8
2016-12-05T02:43:10.280Z,1048.86
2016-12-05T02:44:10.265Z,1048.87
2016-12-05T02:45:10.251Z,1048.91
2016-12-05T02:46:10.234Z,1048.92
2016-12-05T02:47:10.219Z,1048.91
2016-12-05T02:48:10.204Z,1048.92
2016-12-05T02:49:10.189Z,1048.89
2016-12-05T02:50:10.173Z,1048.83
2016-12-05T02:51:10.160Z,1048.82
2016-12-05T02:52:10.143Z,1048.85
2016-12-05T02:53:10.128Z,1048.76
2016-12-05T02:54:10.115Z,1048.74
2016-12-05T02:55:10.100Z,1048.75
2016-12-05T02:56:10.083Z,1048.74
2016-12-05T02:57:10.069Z,1048.72
2016-12-05T02:58:10.052Z,1048.75
2016-12-05T02:59:10.037Z,1048.78
2016-12-05T03:00:10.022Z,1048.84
2016-12-05T03:01:10.007Z,1048.87
2016-12-05T03:02:09.992Z,1048.86
2016-12-05T03:03:09.979Z,1048.88
2016-12-05T03:04:09.962Z,1048.84
2016-12-05T03:05:09.948Z,1048.85
2016-12-05T03:06:09.933Z,1048.84
2016-12-05T03:07:09.917Z,1048.82
2016-12-05T03:08:09.903Z,1048.8
2016-12-05T03:09:09.887Z,1048.77
2016-12-05T03:10:09.871Z,1048.72
2016-12-05T03:11:09.857Z,1048.73
2016-12-05T03:12:09.840Z,1048.72
2016-12-05T03:13:09.825Z,1048.69
2016-12-05T03:14:09.812Z,1048.68
2016-12-05T03:15:09.796Z,1048.68
2016-12-05T03:16:09.781Z,1048.69
2016-12-05T03:17:09.765Z,1048.66
2016-12-05T03:18:09.749Z,1048.66
2016-12-05T03:19:09.734Z,1048.7
2016-12-05T03:20:09.718Z,1048.66
2016-12-05T03:21:09.703Z,1048.65
2016-12-05T03:22:09.687Z,1048.68
2016-12-05T03:23:09.672Z,1048.65
2016-12-05T03:24:09.659Z,1048.64
2016-12-05T03:25:09.644Z,1048.65
2016-12-05T03:26:09.626Z,1048.61
2016-12-05T03:27:09.616Z,1048.62
2016-12-05T03:28:09.597Z,1048.59
2016-12-05T03:29:09.581Z,1048.63
2016-12-05T03:30:09.567Z,1048.62
2016-12-05T03:31:09.551Z,1048.57
2016-12-05T03:32:09.537Z,1048.57
2016-12-05T03:33:09.521Z,1048.55
2016-12-05T03:34:09.506Z,1048.52
2016-12-05T03:35:09.491Z,1048.57
2016-12-05T03:36:09.473Z,1048.58
2016-12-05T03:37:09.460Z,1048.61
2016-12-05T03:38:09.445Z,1048.6
2016-12-05T03:39:09.427Z,1048.54
2016-12-05T03:40:09.413Z,1048.52
2016-12-05T03:41:09.397Z,1048.5
2016-12-05T03:42:09.382Z,1048.54
2016-12-05T03:43:09.369Z,1048.56
2016-12-05T03:44:09.351Z,1048.63
2016-12-05T03:45:09.336Z,1048.66
2016-12-05T03:46:09.321Z,1048.66
2016-12-05T03:47:09.308Z,1048.7
2016-12-05T03:48:09.292Z,1048.67
2016-12-05T03:49:09.278Z,1048.68
2016-12-05T03:50:09.261Z,1048.69
2016-12-05T03:51:09.243Z,1048.66
2016-12-05T03:52:09.229Z,1048.63
2016-12-05T03:53:09.215Z,1048.6
2016-12-05T03:54:09.198Z,1048.6
2016-12-05T03:55:09.182Z,1048.6
2016-12-05T03:56:09.169Z,1048.59
2016-12-05T03:57:09.154Z,1048.57
2016-12-05T03:58:09.138Z,1048.58
2016-12-05T03:59:09.123Z,1048.55
2016-12-05T04:00:09.106Z,1048.52
2016-12-05T04:01:09.092Z,1048.47
2016-12-05T04:02:09.074Z,1048.46
2016-12-05T04:03:09.060Z,1048.43
2016-12-05T04:04:09.044Z,1048.36
2016-12-05T04:05:09.030Z,1048.37
2016-12-05T04:06:09.014Z,1048.34
2016-12-05T04:07:08.997Z,1048.3
2016-12-05T04:08:08.982Z,1048.3
2016-12-05T04:09:08.969Z,1048.25
2016-12-05T04:10:08.952Z,1048.21
2016-12-05T04:11:08.935Z,1048.19
2016-12-05T04:12:08.920Z,1048.2
2016-12-05T04:13:08.904Z,1048.19
2016-12-05T04:14:08.889Z,1048.18
2016-12-05T04:15:08.876Z,1048.18
2016-12-05T04:16:08.859Z,1048.21
2016-12-05T04:17:08.843Z,1048.21
2016-12-05T04:18:08.830Z,1048.16
2016-12-05T04:19:08.813Z,1048.14
2016-12-05T04:20:08.797Z,1048.14
2016-12-05T04:21:08.781Z,1048.12
2016-12-05T04:22:08.766Z,1048.1
2016-12-05T04:23:08.751Z,1048.08
2016-12-05T04:24:08.735Z,1048.06
2016-12-05T04:25:08.721Z,1048.08
2016-12-05T04:26:08.705Z,1048.08
2016-12-05T04:27:08.689Z,1048.09
2016-12-05T04:28:08.673Z,1048.11
2016-12-05T04:29:08.658Z,1048.09
2016-12-05T04:30:08.643Z,1048.09
2016-12-05T04:31:08.630Z,1048.03
2016-12-05T04:32:08.613Z,1048.01
2016-12-05T04:33:08.597Z,1048.02
2016-12-05T04:34:08.584Z,1048.03
2016-12-05T04:35:08.568Z,1048.04
2016-12-05T04:36:08.550Z,1048.06
2016-12-05T04:37:08.535Z,1048.08
2016-12-05T04:38:08.520Z,1048.09
2016-12-05T04:39:08.505Z,1048.07
2016-12-05T04:40:08.489Z,1048.07
2016-12-05T04:41:08.474Z,1048.06
2016-12-05T04:42:08.459Z,1048.01
2016-12-05T04:43:08.442Z,1047.99
2016-12-05T04:44:08.430Z,1048.03
2016-12-05T04:45:08.415Z,1048.04
2016-12-05T04:46:08.396Z,1048.02
2016-12-05T04:47:08.383Z,1048.09
2016-12-05T04:48:08.367Z,1048.05
2016-12-05T04:49:08.352Z,1048.06
2016-12-05T04:50:08.335Z,1048.09
2016-12-05T04:51:08.319Z,1048.04
2016-12-05T04:52:08.304Z,1048.09
2016-12-05T04:53:08.289Z,1048.05
2016-12-05T04:54:08.275Z,1048.09
2016-12-05T04:55:08.259Z,1048.1
2016-12-05T04:56:08.245Z,1048.07
2016-12-05T04:57:08.227Z,1048.02
2016-12-05T04:58:08.212Z,1048.01
2016-12-05T04:59:08.196Z,1047.96
2016-12-05T05:00:08.181Z,1047.96
2016-12-05T05:01:08.165Z,1047.92
2016-12-05T05:02:08.150Z,1047.97
2016-12-05T05:03:08.137Z,1048
2016-12-05T05:04:08.120Z,1047.95
2016-12-05T05:05:08.104Z,1047.99
2016-12-05T05:06:08.091Z,1047.98
2016-12-05T05:07:08.073Z,1047.95
2016-12-05T05:08:08.057Z,1047.99
2016-12-05T05:09:08.044Z,1047.95
2016-12-05T05:10:08.029Z,1047.92
2016-12-05T05:11:08.013Z,1047.86
2016-12-05T05:12:07.996Z,1047.86
2016-12-05T05:13:07.983Z,1047.83
2016-12-05T05:14:07.968Z,1047.85
2016-12-05T05:15:07.954Z,1047.87
2016-12-05T05:16:07.938Z,1047.87
2016-12-05T05:17:07.921Z,1047.83
2016-12-05T05:18:07.905Z,1047.83
2016-12-05T05:19:07.891Z,1047.82
2016-12-05T05:20:07.875Z,1047.84
2016-12-05T05:21:07.861Z,1047.87
2016-12-05T05:22:07.846Z,1047.9
2016-12-05T05:23:07.828Z,1047.89
2016-12-05T05:24:07.813Z,1047.91
2016-12-05T05:25:07.799Z,1047.94
2016-12-05T05:26:07.784Z,1047.93
2016-12-05T05:27:07.769Z,1047.9
2016-12-05T05:28:07.751Z,1047.93
2016-12-05T05:29:07.739Z,1047.91
2016-12-05T05:30:07.723Z,1047.91
2016-12-05T05:31:07.707Z,1047.95
2016-12-05T05:32:07.690Z,1047.96
2016-12-05T05:33:07.676Z,1047.99
2016-12-05T05:34:07.659Z,1047.97
2016-12-05T05:35:07.644Z,1047.94
2016-12-05T05:36:07.631Z,1047.95
2016-12-05T05:37:07.613Z,1047.98
2016-12-05T05:38:07.598Z,1047.94
2016-12-05T05:39:07.585Z,1047.94
2016-12-05T05:40:07.572Z,1047.9
2016-12-05T05:41:07.552Z,1047.87
2016-12-05T05:42:07.537Z,1047.83
2016-12-05T05:43:07.523Z,1047.77
2016-12-05T05:44:07.508Z,1047.67
2016-12-05T05:45:07.490Z,1047.59
2016-12-05T05:46:07.475Z,1047.68
2016-12-05T05:47:07.760Z,1047.7
2016-12-05T05:48:07.447Z,1047.71
2016-12-05T05:49:07.430Z,1047.71
2016-12-05T05:50:07.416Z,1047.72
2016-12-05T05:51:07.398Z,1047.72
2016-12-05T05:52:07.384Z,1047.76
2016-12-05T05:53:07.370Z,1047.73
2016-12-05T05:54:07.355Z,1047.8
2016-12-05T05:55:07.338Z,1047.86
2016-12-05T05:56:07.323Z,1047.93
2016-12-05T05:57:07.306Z,1047.96
2016-12-05T05:58:07.291Z,1047.97
2016-12-05T05:59:07.275Z,1047.99
2016-12-05T06:00:07.261Z,1047.99
2016-12-05T06:01:07.245Z,1047.92
2016-12-05T06:02:07.229Z,1047.92
2016-12-05T06:03:07.216Z,1047.9
2016-12-05T06:04:07.200Z,1047.86
2016-12-05T06:05:07.184Z,1047.85
2016-12-05T06:06:07.170Z,1047.88
2016-12-05T06:07:07.152Z,1047.91
2016-12-05T06:08:07.137Z,1047.91
2016-12-05T06:09:07.123Z,1047.92
2016-12-05T06:10:07.107Z,1047.9
2016-12-05T06:11:07.092Z,1047.89
2016-12-05T06:12:07.077Z,1047.91
2016-12-05T06:13:07.061Z,1047.89
2016-12-05T06:14:07.043Z,1047.86
2016-12-05T06:15:07.030Z,1047.95
2016-12-05T06:16:07.013Z,1047.95
2016-12-05T06:17:06.999Z,1047.95
2016-12-05T06:18:06.981Z,1047.98
2016-12-05T06:19:06.966Z,1047.93
2016-12-05T06:20:06.953Z,1047.89
2016-12-05T06:21:06.935Z,1047.93
2016-12-05T06:22:06.921Z,1047.89
2016-12-05T06:23:06.906Z,1047.89
2016-12-05T06:24:06.892Z,1047.89
2016-12-05T06:25:06.873Z,1047.89
2016-12-05T06:26:06.857Z,1047.88
2016-12-05T06:27:06.843Z,1047.94
2016-12-05T06:28:06.830Z,1047.93
2016-12-05T06:29:06.810Z,1047.93
2016-12-05T06:30:06.797Z,1047.95
2016-12-05T06:31:06.782Z,1047.89
2016-12-05T06:32:06.763Z,1047.91
2016-12-05T06:33:06.748Z,1047.93
2016-12-05T06:34:06.735Z,1047.94
2016-12-05T06:35:06.718Z,1047.95
2016-12-05T06:36:06.702Z,1047.97
2016-12-05T06:37:06.688Z,1047.96
2016-12-05T06:38:06.670Z,1047.94
2016-12-05T06:39:06.656Z,1047.95
2016-12-05T06:40:06.641Z,1047.94
2016-12-05T06:41:06.625Z,1047.97
2016-12-05T06:42:06.610Z,1047.97
2016-12-05T06:43:06.593Z,1047.95
2016-12-05T06:44:06.578Z,1047.98
2016-12-05T06:45:06.563Z,1047.92
2016-12-05T06:46:06.546Z,1047.9
2016-12-05T06:47:06.529Z,1047.87
2016-12-05T06:48:06.513Z,1047.85
2016-12-05T06:49:06.498Z,1047.83
2016-12-05T06:50:06.485Z,1047.86
2016-12-05T06:51:06.469Z,1047.89
2016-12-05T06:52:06.452Z,1047.89
2016-12-05T06:53:06.436Z,1047.9
2016-12-05T06:54:06.422Z,1047.92
2016-12-05T06:55:06.408Z,1047.9
2016-12-05T06:56:06.389Z,1047.89
2016-12-05T06:57:06.374Z,1047.9
2016-12-05T06:58:06.357Z,1047.92
2016-12-05T06:59:06.343Z,1047.95
2016-12-05T07:00:06.328Z,1047.85
2016-12-05T07:01:06.310Z,1047.9
2016-12-05T07:02:06.296Z,1047.87
2016-12-05T07:03:06.281Z,1047.83
2016-12-05T07:04:06.266Z,1047.88
2016-12-05T07:05:06.249Z,1047.94
2016-12-05T07:06:06.232Z,1048
2016-12-05T07:07:06.217Z,1047.97
2016-12-05T07:08:06.203Z,1047.99
2016-12-05T07:09:06.187Z,1047.97
2016-12-05T07:10:06.172Z,1047.99
2016-12-05T07:11:06.157Z,1048.01
2016-12-05T07:12:06.138Z,1048
2016-12-05T07:13:06.125Z,1048.05
2016-12-05T07:14:06.108Z,1048.03
2016-12-05T07:15:06.092Z,1048.11
2016-12-05T07:16:06.077Z,1048.15
2016-12-05T07:17:06.062Z,1048.15
2016-12-05T07:18:06.047Z,1048.15
2016-12-05T07:19:06.031Z,1048.2
2016-12-05T07:20:06.014Z,1048.21
2016-12-05T07:21:05.997Z,1048.23
2016-12-05T07:22:05.981Z,1048.22
2016-12-05T07:23:05.967Z,1048.23
2016-12-05T07:24:05.950Z,1048.25
2016-12-05T07:25:05.933Z,1048.22
2016-12-05T07:26:05.920Z,1048.19
2016-12-05T07:27:05.901Z,1048.21
2016-12-05T07:28:05.887Z,1048.16
2016-12-05T07:29:05.870Z,1048.16
2016-12-05T07:30:05.856Z,1048.16
2016-12-05T07:31:05.838Z,1048.11
2016-12-05T07:32:05.824Z,1048.1
2016-12-05T07:33:05.808Z,1048.05
2016-12-05T07:34:05.797Z,1048
2016-12-05T07:35:05.776Z,1048
2016-12-05T07:36:05.759Z,1047.94
2016-12-05T07:37:05.745Z,1047.95
2016-12-05T07:38:05.727Z,1047.94
2016-12-05T07:39:05.713Z,1047.97
2016-12-05T07:40:05.696Z,1047.97
2016-12-05T07:41:05.683Z,1047.98
2016-12-05T07:42:05.664Z,1047.99
2016-12-05T07:43:05.648Z,1047.99
2016-12-05T07:44:05.633Z,1047.92
2016-12-05T07:45:05.618Z,1047.86
2016-12-05T07:46:05.601Z,1047.86
2016-12-05T07:47:05.585Z,1047.88
2016-12-05T07:48:05.576Z,1047.87
2016-12-05T07:49:05.555Z,1047.81
2016-12-05T07:50:05.540Z,1047.81
2016-12-05T07:51:05.523Z,1047.82
2016-12-05T07:52:05.508Z,1047.82
2016-12-05T07:53:05.493Z,1047.89
2016-12-05T07:54:05.475Z,1047.9
2016-12-05T07:55:05.461Z,1047.84
2016-12-05T07:56:05.444Z,1047.89
2016-12-05T07:57:05.429Z,1047.84
2016-12-05T07:58:05.413Z,1047.82
2016-12-05T07:59:05.399Z,1047.75
2016-12-05T08:00:05.385Z,1047.73
2016-12-05T08:01:05.368Z,1047.72
2016-12-05T08:02:05.351Z,1047.77
2016-12-05T08:03:05.334Z,1047.81
2016-12-05T08:04:05.320Z,1047.82
2016-12-05T08:05:05.305Z,1047.85
2016-12-05T08:06:05.289Z,1047.91
2016-12-05T08:07:05.272Z,1047.91
2016-12-05T08:08:05.258Z,1047.92
2016-12-05T08:09:05.244Z,1047.88
2016-12-05T08:10:05.226Z,1047.88
2016-12-05T08:11:05.208Z,1047.86
2016-12-05T08:12:05.194Z,1047.83
2016-12-05T08:13:05.177Z,1047.78
2016-12-05T08:14:05.164Z,1047.78
2016-12-05T08:15:05.147Z,1047.74
2016-12-05T08:16:05.132Z,1047.76
2016-12-05T08:17:05.115Z,1047.73
2016-12-05T08:18:05.101Z,1047.69
2016-12-05T08:19:05.083Z,1047.67
2016-12-05T08:20:05.068Z,1047.64
2016-12-05T08:21:05.052Z,1047.64
2016-12-05T08:22:05.036Z,1047.64
2016-12-05T08:23:05.021Z,1047.74
2016-12-05T08:24:05.005Z,1047.7
2016-12-05T08:25:04.991Z,1047.76
2016-12-05T08:26:04.977Z,1047.74
2016-12-05T08:27:04.959Z,1047.75
2016-12-05T08:28:04.944Z,1047.77
2016-12-05T08:29:04.929Z,1047.81
2016-12-05T08:30:04.912Z,1047.79
2016-12-05T08:31:04.899Z,1047.71
2016-12-05T08:32:04.882Z,1047.7
2016-12-05T08:33:04.865Z,1047.7
2016-12-05T08:34:04.850Z,1047.65
2016-12-05T08:35:04.836Z,1047.69
2016-12-05T08:36:04.818Z,1047.63
2016-12-05T08:37:04.806Z,1047.56
2016-12-05T08:38:04.791Z,1047.53
2016-12-05T08:39:04.774Z,1047.47
2016-12-05T08:40:04.759Z,1047.44
2016-12-05T08:41:04.744Z,1047.46
2016-12-05T08:42:04.728Z,1047.42
2016-12-05T08:43:04.713Z,1047.43
2016-12-05T08:44:04.696Z,1047.41
2016-12-05T08:45:04.680Z,1047.45
2016-12-05T08:46:04.664Z,1047.46
2016-12-05T08:47:04.649Z,1047.48
2016-12-05T08:48:04.633Z,1047.53
2016-12-05T08:49:04.619Z,1047.54
2016-12-05T08:50:04.603Z,1047.57
2016-12-05T08:51:04.587Z,1047.54
2016-12-05T08:52:04.574Z,1047.59
2016-12-05T08:53:04.559Z,1047.63
2016-12-05T08:54:04.552Z,1047.6
2016-12-05T08:55:04.526Z,1047.62
2016-12-05T08:56:04.512Z,1047.68
2016-12-05T08:57:04.495Z,1047.67
2016-12-05T08:58:04.480Z,1047.7
2016-12-05T08:59:04.465Z,1047.73
2016-12-05T09:00:04.448Z,1047.72
2016-12-05T09:01:04.432Z,1047.71
2016-12-05T09:02:04.418Z,1047.76
2016-12-05T09:03:04.403Z,1047.73
2016-12-05T09:04:04.390Z,1047.73
2016-12-05T09:05:04.371Z,1047.73
2016-12-05T09:06:04.356Z,1047.79
2016-12-05T09:07:04.339Z,1047.77
2016-12-05T09:08:04.326Z,1047.74
2016-12-05T09:09:04.307Z,1047.72
2016-12-05T09:10:04.294Z,1047.7
2016-12-05T09:11:04.277Z,1047.66
2016-12-05T09:12:04.263Z,1047.69
2016-12-05T09:13:04.245Z,1047.71
2016-12-05T09:14:04.232Z,1047.7
2016-12-05T09:15:04.217Z,1047.7
2016-12-05T09:16:04.201Z,1047.73
2016-12-05T09:17:04.183Z,1047.69
2016-12-05T09:18:04.168Z,1047.7
2016-12-05T09:19:04.155Z,1047.72
2016-12-05T09:20:04.136Z,1047.68
2016-12-05T09:21:04.121Z,1047.66
2016-12-05T09:22:04.106Z,1047.69
2016-12-05T09:23:04.091Z,1047.67
2016-12-05T09:24:04.076Z,1047.6
2016-12-05T09:25:04.061Z,1047.57
2016-12-05T09:26:04.043Z,1047.57
2016-12-05T09:27:04.030Z,1047.54
2016-12-05T09:28:04.013Z,1047.52
2016-12-05T09:29:04.006Z,1047.52
2016-12-05T09:30:03.981Z,1047.52
2016-12-05T09:31:03.966Z,1047.5
2016-12-05T09:32:03.950Z,1047.51
2016-12-05T09:33:03.937Z,1047.49
2016-12-05T09:34:03.918Z,1047.47
2016-12-05T09:35:03.905Z,1047.45
2016-12-05T09:36:03.887Z,1047.37
2016-12-05T09:37:03.875Z,1047.37
2016-12-05T09:38:03.859Z,1047.33
2016-12-05T09:39:03.842Z,1047.3
2016-12-05T09:40:03.828Z,1047.31
2016-12-05T09:41:03.812Z,1047.28
2016-12-05T09:42:03.794Z,1047.22
2016-12-05T09:43:03.779Z,1047.19
2016-12-05T09:44:03.765Z,1047.12
2016-12-05T09:45:03.749Z,1047.05
2016-12-05T09:46:03.734Z,1047.02
2016-12-05T09:47:03.719Z,1047.04
2016-12-05T09:48:03.710Z,1047.04
2016-12-05T09:49:03.687Z,1046.99
2016-12-05T09:50:03.671Z,1046.99
2016-12-05T09:51:03.656Z,1046.96
2016-12-05T09:52:03.640Z,1046.95
2016-12-05T09:53:03.624Z,1046.96
2016-12-05T09:54:03.609Z,1046.91
2016-12-05T09:55:03.598Z,1046.87
2016-12-05T09:56:03.580Z,1046.9
2016-12-05T09:57:03.565Z,1046.86
2016-12-05T09:58:03.548Z,1046.81
2016-12-05T09:59:03.535Z,1046.77
2016-12-05T10:00:03.518Z,1046.75
2016-12-05T10:01:03.504Z,1046.7
2016-12-05T10:02:03.491Z,1046.63
2016-12-05T10:03:03.473Z,1046.67
2016-12-05T10:04:03.459Z,1046.65
2016-12-05T10:05:03.444Z,1046.64
2016-12-05T10:06:03.430Z,1046.7
2016-12-05T10:07:03.415Z,1046.71
2016-12-05T10:08:03.399Z,1046.72
2016-12-05T10:09:03.385Z,1046.74
2016-12-05T10:10:03.367Z,1046.71
2016-12-05T10:11:03.353Z,1046.75
2016-12-05T10:12:03.340Z,1046.72
2016-12-05T10:13:03.327Z,1046.67
2016-12-05T10:14:03.308Z,1046.66
2016-12-05T10:15:03.293Z,1046.62
2016-12-05T10:16:03.277Z,1046.69
2016-12-05T10:17:03.264Z,1046.69
2016-12-05T10:18:03.248Z,1046.66
2016-12-05T10:19:03.233Z,1046.67
2016-12-05T10:20:03.216Z,1046.66
2016-12-05T10:21:03.201Z,1046.65
2016-12-05T10:22:03.186Z,1046.64
2016-12-05T10:23:03.173Z,1046.65
2016-12-05T10:24:03.158Z,1046.54
2016-12-05T10:25:03.141Z,1046.53
2016-12-05T10:26:03.126Z,1046.51
2016-12-05T10:27:03.113Z,1046.53
2016-12-05T10:28:03.096Z,1046.45
2016-12-05T10:29:03.082Z,1046.44
2016-12-05T10:30:03.068Z,1046.46
2016-12-05T10:31:03.051Z,1046.44
2016-12-05T10:32:03.037Z,1046.48
2016-12-05T10:33:03.021Z,1046.48
2016-12-05T10:34:03.007Z,1046.52
2016-12-05T10:35:02.994Z,1046.53
2016-12-05T10:36:02.979Z,1046.52
2016-12-05T10:37:02.963Z,1046.53
2016-12-05T10:38:02.946Z,1046.51
2016-12-05T10:39:02.932Z,1046.5
2016-12-05T10:40:02.917Z,1046.54
2016-12-05T10:41:02.903Z,1046.57
2016-12-05T10:42:02.889Z,1046.6
2016-12-05T10:43:02.873Z,1046.61
2016-12-05T10:44:02.858Z,1046.65
2016-12-05T10:45:02.844Z,1046.63
2016-12-05T10:46:02.829Z,1046.58
2016-12-05T10:47:02.813Z,1046.53
2016-12-05T10:48:02.799Z,1046.54
2016-12-05T10:49:02.784Z,1046.51
2016-12-05T10:50:02.769Z,1046.56
2016-12-05T10:51:02.768Z,1046.53
2016-12-05T10:52:02.737Z,1046.44
2016-12-05T10:53:02.723Z,1046.4
2016-12-05T10:54:02.710Z,1046.36
2016-12-05T10:55:02.697Z,1046.33
2016-12-05T10:56:02.679Z,1046.29
2016-12-05T10:57:02.665Z,1046.28
2016-12-05T10:58:02.651Z,1046.27
2016-12-05T10:59:02.633Z,1046.21
2016-12-05T11:00:02.621Z,1046.14
2016-12-05T11:01:02.606Z,1046.06
2016-12-05T11:02:02.591Z,1046.02
2016-12-05T11:03:02.574Z,1045.98
2016-12-05T11:04:02.561Z,1045.88
2016-12-05T11:05:02.545Z,1045.84
2016-12-05T11:06:02.529Z,1045.84
2016-12-05T11:07:02.518Z,1045.8
2016-12-05T11:08:02.500Z,1045.78
2016-12-05T11:09:02.488Z,1045.76
2016-12-05T11:10:02.472Z,1045.75
2016-12-05T11:11:02.456Z,1045.75
2016-12-05T11:12:02.441Z,1045.75
2016-12-05T11:13:02.428Z,1045.71
2016-12-05T11:14:02.412Z,1045.67
2016-12-05T11:15:02.399Z,1045.65
2016-12-05T11:16:02.384Z,1045.65
2016-12-05T11:17:02.368Z,1045.58
2016-12-05T11:18:02.354Z,1045.61
2016-12-05T11:19:02.340Z,1045.56
2016-12-05T11:20:02.325Z,1045.52
2016-12-05T11:21:02.312Z,1045.48
2016-12-05T11:22:02.298Z,1045.46
2016-12-05T11:23:02.285Z,1045.41
2016-12-05T11:24:02.269Z,1045.36
2016-12-05T11:25:02.254Z,1045.32
2016-12-05T11:26:02.240Z,1045.35
2016-12-05T11:27:02.224Z,1045.35
2016-12-05T11:28:02.209Z,1045.36
2016-12-05T11:29:02.196Z,1045.38
2016-12-05T11:30:02.182Z,1045.35
2016-12-05T11:31:02.167Z,1045.32
2016-12-05T11:32:02.153Z,1045.31
2016-12-05T11:33:02.137Z,1045.33
2016-12-05T11:34:02.123Z,1045.3
2016-12-05T11:35:02.109Z,1045.29
2016-12-05T11:36:02.096Z,1045.26
2016-12-05T11:37:02.081Z,1045.24
2016-12-05T11:38:02.069Z,1045.22
2016-12-05T11:39:02.054Z,1045.21
2016-12-05T11:40:02.038Z,1045.14
2016-12-05T11:41:02.025Z,1045.12
2016-12-05T11:42:02.009Z,1045.14
2016-12-05T11:43:01.998Z,1045.09
2016-12-05T11:44:01.986Z,1045.07
2016-12-05T11:45:01.969Z,1045.03
2016-12-05T11:46:01.954Z,1044.98
2016-12-05T11:47:01.938Z,1044.98
2016-12-05T11:48:01.926Z,1044.97
2016-12-05T11:49:01.911Z,1044.9
2016-12-05T11:50:01.895Z,1044.9
2016-12-05T11:51:01.883Z,1044.91
2016-12-05T11:52:01.867Z,1044.88
2016-12-05T11:53:01.856Z,1044.91
2016-12-05T11:54:01.840Z,1044.92
2016-12-05T11:55:01.826Z,1044.95
2016-12-05T11:56:01.811Z,1044.92
2016-12-05T11:57:01.798Z,1044.97
2016-12-05T11:58:01.784Z,1044.95
2016-12-05T11:59:01.770Z,1044.94
2016-12-05T12:00:01.756Z,1044.91
2016-12-05T12:01:01.740Z,1044.85
2016-12-05T12:02:01.728Z,1044.87
2016-12-05T12:03:01.714Z,1044.84
2016-12-05T12:04:01.701Z,1044.91
2016-12-05T12:05:01.685Z,1044.9
2016-12-05T12:06:01.669Z,1044.96
2016-12-05T12:07:01.656Z,1044.98
2016-12-05T12:08:01.643Z,1045